createdAt,value
2015-11-17T00:00:03.861Z,95.3
2015-11-17T00:01:03.833Z,95.5
2015-11-17T00:02:03.741Z,95.6
2015-11-17T00:03:03.697Z,95.8
2015-11-17T00:04:03.638Z,96.1
2015-11-17T00:05:03.577Z,96.4
2015-11-17T00:06:03.549Z,96.6
2015-11-17T00:07:03.473Z,97.5
2015-11-17T00:08:03.664Z,97.8
2015-11-17T00:09:03.416Z,98
2015-11-17T00:10:03.341Z,98.4
2015-11-17T00:11:03.281Z,99
2015-11-17T00:12:03.221Z,99.5
2015-11-17T00:13:03.162Z,99.8
2015-11-17T00:14:03.118Z,99.8
2015-11-17T00:15:03.057Z,99.9
2015-11-17T00:16:03.014Z,99.9
2015-11-17T00:17:03.188Z,99.9
2015-11-17T00:18:02.940Z,99.9
2015-11-17T00:19:02.850Z,99.9
2015-11-17T00:20:02.805Z,99.9
2015-11-17T00:21:02.745Z,99.9
2015-11-17T00:22:02.701Z,99.9
2015-11-17T00:23:02.625Z,99.9
2015-11-17T00:24:02.598Z,99.9
2015-11-17T00:25:02.538Z,99.9
2015-11-17T00:26:02.509Z,99.9
2015-11-17T00:27:02.433Z,99.9
2015-11-17T00:28:02.374Z,99.9
2015-11-17T00:29:02.330Z,99.9
2015-11-17T00:30:02.505Z,99.9
2015-11-17T00:31:02.225Z,99.9
2015-11-17T00:32:02.182Z,99.9
2015-11-17T00:33:02.355Z,99.9
2015-11-17T00:34:02.078Z,99.9
2015-11-17T00:35:02.002Z,99.9
2015-11-17T00:36:01.957Z,99.9
2015-11-17T00:37:01.899Z,99.9
2015-11-17T00:38:01.854Z,99.9
2015-11-17T00:39:01.810Z,99.9
2015-11-17T00:40:01.750Z,99.9
2015-11-17T00:41:01.707Z,99.9
2015-11-17T00:42:01.646Z,99.8
2015-11-17T00:43:01.587Z,99.7
2015-11-17T00:44:01.776Z,99.6
2015-11-17T00:45:01.482Z,99.3
2015-11-17T00:46:01.438Z,99.4
2015-11-17T00:47:01.379Z,99.1
2015-11-17T00:48:01.334Z,99.1
2015-11-17T00:49:01.274Z,99.1
2015-11-17T00:50:01.230Z,98.8
2015-11-17T00:51:01.170Z,98.8
2015-11-17T00:52:01.126Z,98.5
2015-11-17T00:53:01.081Z,98.6
2015-11-17T00:54:01.023Z,98.9
2015-11-17T00:55:00.994Z,98.9
2015-11-17T00:56:01.153Z,99.1
2015-11-17T00:57:00.874Z,99
2015-11-17T00:58:00.814Z,99
2015-11-17T00:59:00.614Z,99
2015-11-17T01:00:00.710Z,98.9
2015-11-17T01:01:00.901Z,98.9
2015-11-17T01:02:00.606Z,98.7
2015-11-17T01:03:00.593Z,98.7
2015-11-17T01:04:00.502Z,98.7
2015-11-17T01:05:00.458Z,98.6
2015-11-17T01:06:00.399Z,98.5
2015-11-17T01:07:00.385Z,99
2015-11-17T01:08:00.341Z,99.1
2015-11-17T01:09:00.234Z,99.2
2015-11-17T01:10:00.205Z,99.2
2015-11-17T01:11:00.130Z,99.3
2015-11-17T01:12:00.102Z,99.1
2015-11-17T01:13:00.042Z,99.3
2015-11-17T01:13:59.983Z,99.1
2015-11-17T01:14:59.923Z,99.2
2015-11-17T01:15:59.878Z,99.1
2015-11-17T01:16:59.818Z,98.9
2015-11-17T01:17:59.790Z,98.5
2015-11-17T01:18:59.719Z,98.4
2015-11-17T01:19:59.691Z,98.3
2015-11-17T01:20:59.631Z,98.3
2015-11-17T01:21:59.571Z,98.4
2015-11-17T01:23:00.527Z,98.2
2015-11-17T01:23:59.467Z,98.2
2015-11-17T01:24:59.422Z,98.1
2015-11-17T01:25:59.411Z,98.2
2015-11-17T01:26:59.319Z,98.1
2015-11-17T01:27:59.275Z,98.2
2015-11-17T01:28:59.216Z,98.3
2015-11-17T01:29:59.156Z,98.4
2015-11-17T01:30:59.111Z,98.3
2015-11-17T01:31:59.052Z,98.2
2015-11-17T01:32:59.008Z,98.3
2015-11-17T01:33:58.963Z,98.5
2015-11-17T01:34:58.903Z,98.4
2015-11-17T01:35:58.860Z,98.4
2015-11-17T01:36:58.799Z,98.3
2015-11-17T01:37:58.740Z,98.1
2015-11-17T01:38:58.696Z,98.1
2015-11-17T01:39:58.635Z,98
2015-11-17T01:40:58.591Z,97.7
2015-11-17T01:41:58.546Z,97.8
2015-11-17T01:42:58.487Z,97.9
2015-11-17T01:43:58.443Z,98
2015-11-17T01:44:58.384Z,98
2015-11-17T01:45:58.339Z,98
2015-11-17T01:46:58.295Z,98
2015-11-17T01:47:58.251Z,97.9
2015-11-17T01:48:58.426Z,97.9
2015-11-17T01:49:58.147Z,98.2
2015-11-17T01:50:58.087Z,97.8
2015-11-17T01:51:58.028Z,98
2015-11-17T01:52:57.984Z,98
2015-11-17T01:53:58.173Z,98
2015-11-17T01:54:57.879Z,98.2
2015-11-17T01:55:57.867Z,98.2
2015-11-17T01:56:57.776Z,98.3
2015-11-17T01:57:57.731Z,98.4
2015-11-17T01:58:57.672Z,98.5
2015-11-17T01:59:57.612Z,98.5
2015-11-17T02:00:57.568Z,98.4
2015-11-17T02:01:57.523Z,98.2
2015-11-17T02:02:57.479Z,98.2
2015-11-17T02:03:57.420Z,98.1
2015-11-17T02:04:57.360Z,98.2
2015-11-17T02:05:57.317Z,98.2
2015-11-17T02:06:57.506Z,98.3
2015-11-17T02:07:57.212Z,98.4
2015-11-17T02:08:57.167Z,98.2
2015-11-17T02:09:57.108Z,98.2
2015-11-17T02:10:57.080Z,98.1
2015-11-17T02:11:57.006Z,98
2015-11-17T02:12:56.962Z,98
2015-11-17T02:13:56.918Z,98.1
2015-11-17T02:14:56.842Z,98.1
2015-11-17T02:15:56.799Z,98.4
2015-11-17T02:16:56.754Z,98.8
2015-11-17T02:17:56.711Z,98.7
2015-11-17T02:18:56.651Z,98.8
2015-11-17T02:19:56.606Z,98.7
2015-11-17T02:20:56.547Z,98.7
2015-11-17T02:21:56.736Z,98.7
2015-11-17T02:22:56.443Z,98.8
2015-11-17T02:23:56.414Z,98.8
2015-11-17T02:24:56.370Z,98.7
2015-11-17T02:25:56.295Z,98.8
2015-11-17T02:26:56.235Z,99
2015-11-17T02:27:56.191Z,99.2
2015-11-17T02:28:56.147Z,99.5
2015-11-17T02:29:56.103Z,99.3
2015-11-17T02:30:56.044Z,99.7
2015-11-17T02:31:55.984Z,99.4
2015-11-17T02:32:55.939Z,99.2
2015-11-17T02:33:55.895Z,98.9
2015-11-17T02:34:55.851Z,98.8
2015-11-17T02:35:55.775Z,99
2015-11-17T02:36:55.716Z,99.1
2015-11-17T02:37:55.688Z,99.2
2015-11-17T02:38:55.613Z,99.3
2015-11-17T02:39:55.553Z,99.3
2015-11-17T02:40:55.493Z,99.4
2015-11-17T02:41:55.464Z,99.3
2015-11-17T02:42:55.249Z,99.2
2015-11-17T02:43:55.361Z,99.3
2015-11-17T02:44:55.285Z,99.3
2015-11-17T02:45:55.241Z,99.3
2015-11-17T02:46:55.180Z,99.3
2015-11-17T02:47:55.137Z,99.6
2015-11-17T02:48:55.090Z,99.7
2015-11-17T02:49:55.030Z,99.8
2015-11-17T02:50:54.955Z,99.9
2015-11-17T02:51:54.911Z,99.8
2015-11-17T02:52:54.866Z,99.7
2015-11-17T02:53:54.822Z,99.6
2015-11-17T02:54:54.747Z,99.8
2015-11-17T02:55:54.938Z,99.9
2015-11-17T02:56:54.644Z,99.8
2015-11-17T02:57:54.599Z,99.8
2015-11-17T02:58:54.555Z,99.7
2015-11-17T02:59:54.496Z,99.9
2015-11-17T03:00:54.435Z,99.9
2015-11-17T03:01:54.377Z,99.9
2015-11-17T03:02:54.332Z,99.9
2015-11-17T03:03:54.303Z,99.9
2015-11-17T03:04:54.244Z,99.9
2015-11-17T03:05:54.169Z,99.9
2015-11-17T03:06:54.125Z,99.9
2015-11-17T03:07:54.080Z,99.9
2015-11-17T03:08:54.036Z,99.9
2015-11-17T03:09:53.977Z,99.9
2015-11-17T03:10:53.948Z,99.9
2015-11-17T03:11:53.872Z,99.9
2015-11-17T03:12:53.797Z,99.9
2015-11-17T03:13:53.753Z,99.9
2015-11-17T03:14:53.709Z,99.9
2015-11-17T03:15:53.649Z,99.9
2015-11-17T03:16:53.839Z,99.9
2015-11-17T03:17:53.546Z,99.9
2015-11-17T03:18:53.501Z,99.9
2015-11-17T03:19:53.457Z,99.9
2015-11-17T03:20:53.382Z,99.9
2015-11-17T03:21:53.337Z,99.9
2015-11-17T03:22:53.293Z,99.9
2015-11-17T03:23:53.234Z,99.9
2015-11-17T03:24:53.221Z,99.9
2015-11-17T03:25:53.127Z,99.9
2015-11-17T03:26:53.083Z,99.9
2015-11-17T03:27:53.038Z,99.9
2015-11-17T03:28:52.979Z,99.9
2015-11-17T03:29:52.919Z,99.9
2015-11-17T03:30:52.859Z,99.9
2015-11-17T03:31:52.816Z,99.9
2015-11-17T03:32:52.756Z,99.9
2015-11-17T03:33:52.712Z,99.9
2015-11-17T03:34:52.667Z,99.9
2015-11-17T03:35:52.608Z,99.9
2015-11-17T03:36:52.548Z,99.9
2015-11-17T03:37:52.488Z,99.9
2015-11-17T03:38:52.678Z,99.9
2015-11-17T03:39:52.384Z,99.9
2015-11-17T03:40:52.340Z,99.9
2015-11-17T03:41:52.312Z,99.9
2015-11-17T03:42:52.252Z,99.9
2015-11-17T03:43:52.176Z,99.9
2015-11-17T03:44:52.164Z,99.9
2015-11-17T03:45:52.088Z,99.9
2015-11-17T03:46:52.029Z,99.9
2015-11-17T03:47:51.969Z,99.9
2015-11-17T03:48:51.925Z,99.9
2015-11-17T03:49:51.881Z,99.9
2015-11-17T03:50:51.820Z,99.9
2015-11-17T03:51:51.762Z,99.9
2015-11-17T03:52:51.717Z,99.9
2015-11-17T03:53:51.664Z,99.9
2015-11-17T03:54:51.593Z,99.9
2015-11-17T03:55:51.523Z,99.9
2015-11-17T03:56:51.467Z,99.9
2015-11-17T03:57:51.397Z,99.9
2015-11-17T03:58:51.582Z,99.9
2015-11-17T03:59:51.301Z,99.9
2015-11-17T04:00:51.471Z,99.9
2015-11-17T04:01:51.188Z,99.9
2015-11-17T04:02:51.126Z,99.9
2015-11-17T04:03:51.062Z,99.9
2015-11-17T04:04:51.017Z,99.9
2015-11-17T04:05:50.955Z,99.9
2015-11-17T04:06:50.910Z,99.9
2015-11-17T04:07:50.848Z,99.9
2015-11-17T04:08:51.037Z,99.9
2015-11-17T04:09:50.758Z,99.9
2015-11-17T04:10:50.683Z,99.9
2015-11-17T04:11:50.638Z,99.9
2015-11-17T04:12:50.578Z,99.9
2015-11-17T04:13:50.534Z,99.9
2015-11-17T04:14:50.489Z,99.9
2015-11-17T04:15:50.445Z,99.9
2015-11-17T04:16:50.369Z,99.9
2015-11-17T04:17:50.324Z,99.9
2015-11-17T04:18:50.264Z,99.9
2015-11-17T04:19:50.220Z,99.9
2015-11-17T04:20:50.160Z,99.9
2015-11-17T04:21:50.132Z,99.9
2015-11-17T04:22:50.057Z,99.9
2015-11-17T04:23:49.997Z,99.9
2015-11-17T04:24:49.968Z,99.9
2015-11-17T04:25:49.893Z,99.9
2015-11-17T04:26:49.849Z,99.9
2015-11-17T04:27:49.820Z,99.9
2015-11-17T04:28:49.744Z,99.9
2015-11-17T04:29:49.701Z,99.9
2015-11-17T04:30:49.641Z,99.9
2015-11-17T04:31:49.581Z,99.9
2015-11-17T04:32:49.522Z,99.9
2015-11-17T04:33:49.477Z,99.9
2015-11-17T04:34:49.433Z,99.9
2015-11-17T04:35:49.374Z,99.9
2015-11-17T04:36:49.313Z,99.9
2015-11-17T04:37:49.254Z,99.9
2015-11-17T04:38:49.210Z,99.9
2015-11-17T04:39:49.165Z,99.9
2015-11-17T04:40:49.121Z,99.9
2015-11-17T04:41:49.043Z,99.9
2015-11-17T04:42:48.984Z,99.9
2015-11-17T04:43:48.940Z,99.9
2015-11-17T04:44:48.895Z,99.9
2015-11-17T04:45:48.835Z,99.9
2015-11-17T04:46:48.776Z,99.9
2015-11-17T04:47:48.732Z,99.9
2015-11-17T04:48:48.671Z,99.9
2015-11-17T04:49:48.628Z,99.9
2015-11-17T04:50:48.568Z,99.9
2015-11-17T04:51:48.509Z,99.9
2015-11-17T04:52:48.448Z,99.9
2015-11-17T04:53:48.405Z,99.9
2015-11-17T04:54:48.361Z,99.9
2015-11-17T04:55:48.316Z,99.9
2015-11-17T04:56:48.241Z,99.9
2015-11-17T04:57:48.196Z,99.9
2015-11-17T04:58:48.387Z,99.9
2015-11-17T04:59:48.093Z,99.9
2015-11-17T05:00:48.079Z,99.9
2015-11-17T05:01:47.990Z,99.9
2015-11-17T05:02:47.929Z,99.9
2015-11-17T05:03:47.870Z,99.9
2015-11-17T05:04:47.826Z,99.9
2015-11-17T05:05:47.782Z,99.9
2015-11-17T05:06:47.706Z,99.9
2015-11-17T05:07:47.663Z,99.9
2015-11-17T05:08:47.634Z,99.9
2015-11-17T05:09:47.558Z,99.9
2015-11-17T05:10:47.529Z,99.9
2015-11-17T05:11:47.455Z,99.9
2015-11-17T05:12:47.395Z,99.9
2015-11-17T05:13:47.350Z,99.9
2015-11-17T05:14:47.290Z,99.9
2015-11-17T05:15:47.246Z,99.9
2015-11-17T05:16:47.203Z,99.9
2015-11-17T05:17:47.143Z,99.9
2015-11-17T05:18:47.084Z,99.9
2015-11-17T05:19:47.055Z,99.9
2015-11-17T05:20:46.993Z,99.9
2015-11-17T05:21:46.932Z,99.9
2015-11-17T05:22:46.873Z,99.9
2015-11-17T05:23:46.828Z,99.9
2015-11-17T05:24:46.768Z,99.9
2015-11-17T05:25:46.725Z,99.9
2015-11-17T05:26:46.681Z,99.9
2015-11-17T05:27:46.621Z,99.9
2015-11-17T05:28:46.795Z,99.9
2015-11-17T05:29:46.517Z,99.9
2015-11-17T05:30:46.473Z,99.9
2015-11-17T05:31:46.429Z,99.9
2015-11-17T05:32:46.370Z,99.9
2015-11-17T05:33:46.309Z,99.9
2015-11-17T05:34:46.264Z,99.9
2015-11-17T05:35:46.221Z,99.9
2015-11-17T05:36:46.176Z,99.9
2015-11-17T05:37:46.117Z,99.9
2015-11-17T05:38:46.056Z,99.9
2015-11-17T05:39:45.997Z,99.9
2015-11-17T05:40:45.937Z,99.9
2015-11-17T05:41:45.894Z,99.6
2015-11-17T05:42:45.850Z,99.7
2015-11-17T05:43:45.790Z,99.9
2015-11-17T05:44:45.948Z,99.9
2015-11-17T05:45:45.686Z,99.9
2015-11-17T05:46:45.750Z,99.9
2015-11-17T05:47:45.581Z,99.9
2015-11-17T05:48:45.679Z,99.9
2015-11-17T05:49:45.510Z,99.9
2015-11-17T05:50:45.419Z,99.9
2015-11-17T05:51:45.375Z,99.9
2015-11-17T05:52:45.330Z,99.9
2015-11-17T05:53:45.270Z,99.9
2015-11-17T05:54:45.211Z,99.9
2015-11-17T05:55:45.166Z,99.9
2015-11-17T05:56:45.106Z,99.9
2015-11-17T05:57:45.297Z,99.9
2015-11-17T05:58:45.003Z,99.9
2015-11-17T05:59:44.958Z,99.9
2015-11-17T06:00:44.914Z,99.9
2015-11-17T06:01:44.836Z,99.6
2015-11-17T06:02:44.792Z,99.6
2015-11-17T06:03:44.748Z,99.5
2015-11-17T06:04:44.688Z,99.8
2015-11-17T06:05:44.629Z,99.8
2015-11-17T06:06:44.569Z,99.7
2015-11-17T06:07:44.525Z,99.6
2015-11-17T06:08:44.480Z,99.5
2015-11-17T06:09:44.437Z,99.8
2015-11-17T06:10:44.361Z,99.9
2015-11-17T06:11:44.552Z,99.9
2015-11-17T06:12:44.273Z,99.9
2015-11-17T06:13:44.213Z,99.9
2015-11-17T06:14:44.169Z,99.9
2015-11-17T06:15:44.344Z,99.9
2015-11-17T06:16:44.049Z,99.9
2015-11-17T06:17:44.036Z,99.9
2015-11-17T06:18:43.961Z,99.9
2015-11-17T06:19:43.902Z,99.9
2015-11-17T06:20:43.841Z,99.9
2015-11-17T06:21:44.033Z,99.9
2015-11-17T06:22:43.738Z,99.9
2015-11-17T06:23:43.694Z,99.9
2015-11-17T06:24:43.635Z,99.9
2015-11-17T06:25:43.574Z,99.9
2015-11-17T06:26:43.530Z,99.9
2015-11-17T06:27:43.471Z,99.9
2015-11-17T06:28:43.411Z,99.9
2015-11-17T06:29:43.367Z,99.9
2015-11-17T06:30:43.323Z,99.9
2015-11-17T06:31:43.263Z,99.9
2015-11-17T06:32:43.203Z,99.9
2015-11-17T06:33:43.144Z,99.9
2015-11-17T06:34:43.100Z,99.9
2015-11-17T06:35:43.055Z,99.9
2015-11-17T06:36:42.996Z,99.9
2015-11-17T06:37:42.936Z,99.9
2015-11-17T06:38:42.892Z,99.9
2015-11-17T06:39:42.830Z,99.9
2015-11-17T06:40:42.785Z,99.9
2015-11-17T06:41:42.724Z,99.9
2015-11-17T06:42:42.696Z,99.9
2015-11-17T06:43:42.637Z,99.9
2015-11-17T06:44:42.608Z,99.9
2015-11-17T06:45:42.518Z,99.9
2015-11-17T06:46:42.458Z,99.9
2015-11-17T06:47:42.398Z,99.9
2015-11-17T06:48:42.354Z,99.9
2015-11-17T06:49:42.310Z,99.9
2015-11-17T06:50:42.266Z,99.9
2015-11-17T06:51:42.206Z,99.9
2015-11-17T06:52:42.146Z,99.9
2015-11-17T06:53:42.101Z,99.9
2015-11-17T06:54:42.043Z,99.9
2015-11-17T06:55:41.982Z,99.9
2015-11-17T06:56:41.938Z,99.9
2015-11-17T06:57:41.879Z,99.9
2015-11-17T06:58:41.819Z,99.9
2015-11-17T06:59:41.774Z,99.9
2015-11-17T07:00:41.715Z,99.9
2015-11-17T07:01:41.671Z,99.9
2015-11-17T07:02:41.612Z,99.9
2015-11-17T07:03:41.551Z,99.9
2015-11-17T07:04:41.742Z,99.9
2015-11-17T07:05:41.463Z,99.9
2015-11-17T07:06:41.404Z,99.9
2015-11-17T07:07:41.343Z,99.9
2015-11-17T07:08:41.299Z,99.9
2015-11-17T07:09:41.240Z,99.9
2015-11-17T07:10:41.196Z,99.9
2015-11-17T07:11:41.152Z,99.9
2015-11-17T07:12:41.124Z,99.9
2015-11-17T07:13:41.033Z,99.9
2015-11-17T07:14:40.988Z,99.9
2015-11-17T07:15:40.944Z,99.8
2015-11-17T07:16:40.884Z,99.6
2015-11-17T07:17:40.824Z,99.7
2015-11-17T07:18:40.762Z,99.6
2015-11-17T07:19:40.717Z,99.5
2015-11-17T07:20:40.659Z,99.5
2015-11-17T07:21:40.615Z,99.5
2015-11-17T07:22:40.554Z,99.5
2015-11-17T07:23:40.728Z,99.6
2015-11-17T07:24:40.450Z,99.5
2015-11-17T07:25:40.390Z,99.5
2015-11-17T07:26:40.346Z,99.6
2015-11-17T07:27:40.318Z,99.7
2015-11-17T07:28:40.243Z,99.8
2015-11-17T07:29:40.183Z,99.9
2015-11-17T07:30:40.139Z,99.7
2015-11-17T07:31:40.079Z,99.5
2015-11-17T07:32:39.300Z,99.6
2015-11-17T07:33:39.975Z,99.7
2015-11-17T07:34:39.915Z,99.7
2015-11-17T07:35:39.903Z,99.7
2015-11-17T07:36:39.812Z,99.7
2015-11-17T07:37:39.767Z,99.9
2015-11-17T07:38:39.708Z,99.6
2015-11-17T07:39:39.664Z,99.7
2015-11-17T07:40:39.604Z,99.7
2015-11-17T07:41:39.560Z,99.6
2015-11-17T07:42:39.501Z,99.6
2015-11-17T07:43:39.440Z,99.7
2015-11-17T07:44:39.412Z,99.8
2015-11-17T07:45:39.587Z,99.6
2015-11-17T07:46:39.308Z,99.5
2015-11-17T07:47:39.248Z,99.5
2015-11-17T07:48:39.189Z,99.5
2015-11-17T07:49:39.129Z,99.3
2015-11-17T07:50:39.084Z,99.5
2015-11-17T07:51:39.040Z,99.3
2015-11-17T07:52:38.997Z,99.3
2015-11-17T07:53:38.921Z,98.9
2015-11-17T07:54:38.892Z,99.3
2015-11-17T07:55:38.817Z,99.4
2015-11-17T07:56:39.008Z,99.5
2015-11-17T07:57:38.964Z,99.6
2015-11-17T07:58:38.667Z,99.7
2015-11-17T07:59:38.606Z,99.9
2015-11-17T08:00:38.562Z,99.8
2015-11-17T08:01:38.519Z,99.9
2015-11-17T08:02:38.458Z,99.8
2015-11-17T08:03:38.414Z,99.8
2015-11-17T08:04:38.355Z,99.6
2015-11-17T08:05:38.294Z,99.2
2015-11-17T08:06:38.250Z,98.8
2015-11-17T08:07:38.456Z,98.5
2015-11-17T08:08:38.397Z,98.4
2015-11-17T08:09:38.103Z,98.4
2015-11-17T08:10:38.043Z,98.2
2015-11-17T08:11:37.984Z,98.3
2015-11-17T08:12:37.939Z,98.2
2015-11-17T08:13:37.894Z,98.3
2015-11-17T08:14:37.835Z,98.4
2015-11-17T08:15:37.025Z,98.5
2015-11-17T08:16:37.747Z,98.9
2015-11-17T08:17:37.703Z,99.2
2015-11-17T08:18:37.659Z,99.2
2015-11-17T08:19:37.568Z,99.5
2015-11-17T08:20:37.571Z,99.9
2015-11-17T08:21:37.527Z,99.9
2015-11-17T08:22:37.420Z,99.6
2015-11-17T08:23:37.360Z,99.8
2015-11-17T08:24:37.317Z,99.9
2015-11-17T08:25:37.272Z,99.9
2015-11-17T08:26:37.213Z,99.9
2015-11-17T08:27:37.169Z,99.9
2015-11-17T08:28:37.109Z,99.9
2015-11-17T08:29:37.064Z,99.9
2015-11-17T08:30:37.020Z,99.9
2015-11-17T08:31:36.960Z,99.5
2015-11-17T08:32:36.916Z,99.4
2015-11-17T08:33:36.857Z,99.3
2015-11-17T08:34:36.797Z,99
2015-11-17T08:35:36.769Z,98.7
2015-11-17T08:36:36.708Z,98.4
2015-11-17T08:37:36.649Z,98.4
2015-11-17T08:38:36.602Z,98.4
2015-11-17T08:39:36.541Z,98.5
2015-11-17T08:40:36.483Z,98.7
2015-11-17T08:41:36.438Z,98.7
2015-11-17T08:42:36.393Z,98.6
2015-11-17T08:43:36.335Z,98.7
2015-11-17T08:44:36.274Z,98.8
2015-11-17T08:45:36.230Z,98.8
2015-11-17T08:46:36.202Z,98.8
2015-11-17T08:47:36.127Z,99
2015-11-17T08:48:36.066Z,98.9
2015-11-17T08:49:36.023Z,98.8
2015-11-17T08:50:36.197Z,98.8
2015-11-17T08:51:35.184Z,99.2
2015-11-17T08:52:35.875Z,99.2
2015-11-17T08:53:35.815Z,99.4
2015-11-17T08:54:35.755Z,99.6
2015-11-17T08:55:35.727Z,99.5
2015-11-17T08:56:35.668Z,99.5
2015-11-17T08:57:35.607Z,99.5
2015-11-17T08:58:35.548Z,99.7
2015-11-17T08:59:35.487Z,99.5
2015-11-17T09:00:35.443Z,99.4
2015-11-17T09:01:35.399Z,99.2
2015-11-17T09:02:35.340Z,98.9
2015-11-17T09:03:35.529Z,99.1
2015-11-17T09:04:35.268Z,99.1
2015-11-17T09:05:35.426Z,99
2015-11-17T09:06:35.133Z,99.1
2015-11-17T09:07:35.072Z,99
2015-11-17T09:08:35.029Z,98.7
2015-11-17T09:09:34.985Z,98.8
2015-11-17T09:10:34.924Z,98.8
2015-11-17T09:11:34.865Z,98.9
2015-11-17T09:12:34.820Z,99.1
2015-11-17T09:13:34.760Z,99.1
2015-11-17T09:14:34.717Z,99.1
2015-11-17T09:15:34.657Z,99.1
2015-11-17T09:16:34.628Z,98.8
2015-11-17T09:17:34.550Z,99
2015-11-17T09:18:34.740Z,99.2
2015-11-17T09:19:34.446Z,99.1
2015-11-17T09:20:34.386Z,99.1
2015-11-17T09:21:34.326Z,99.1
2015-11-17T09:22:34.298Z,99.2
2015-11-17T09:23:34.223Z,99.2
2015-11-17T09:24:34.195Z,99.2
2015-11-17T09:25:34.135Z,99.2
2015-11-17T09:26:34.075Z,99
2015-11-17T09:27:34.031Z,99.2
2015-11-17T09:28:33.971Z,99
2015-11-17T09:29:33.927Z,99
2015-11-17T09:30:33.883Z,99.1
2015-11-17T09:31:33.807Z,99
2015-11-17T09:32:33.764Z,99.1
2015-11-17T09:33:33.720Z,98.9
2015-11-17T09:34:33.660Z,98.7
2015-11-17T09:35:33.631Z,98.6
2015-11-17T09:36:33.587Z,98.6
2015-11-17T09:37:33.512Z,98.6
2015-11-17T09:38:33.451Z,98.7
2015-11-17T09:39:33.408Z,98.7
2015-11-17T09:40:33.348Z,98.3
2015-11-17T09:41:33.304Z,98.2
2015-11-17T09:42:33.260Z,98.1
2015-11-17T09:43:33.201Z,98.1
2015-11-17T09:44:33.172Z,98
2015-11-17T09:45:33.081Z,98
2015-11-17T09:46:33.053Z,97.5
2015-11-17T09:47:33.039Z,97.4
2015-11-17T09:48:32.948Z,97
2015-11-17T09:49:32.889Z,95.6
2015-11-17T09:50:32.829Z,95.6
2015-11-17T09:51:32.801Z,96
2015-11-17T09:52:32.725Z,95.8
2015-11-17T09:53:32.712Z,95.9
2015-11-17T09:54:32.634Z,96
2015-11-17T09:55:32.575Z,96
2015-11-17T09:56:32.530Z,95.1
2015-11-17T09:57:32.486Z,94.3
2015-11-17T09:58:32.426Z,94.2
2015-11-17T09:59:32.601Z,94.7
2015-11-17T10:00:32.323Z,94.6
2015-11-17T10:01:32.262Z,95.5
2015-11-17T10:02:32.219Z,95.6
2015-11-17T10:03:32.189Z,94.8
2015-11-17T10:04:32.114Z,94.9
2015-11-17T10:05:32.055Z,94.4
2015-11-17T10:06:32.011Z,94
2015-11-17T10:07:31.966Z,94.4
2015-11-17T10:08:31.907Z,94.7
2015-11-17T10:09:31.848Z,94.7
2015-11-17T10:10:31.803Z,95.3
2015-11-17T10:11:31.775Z,95.5
2015-11-17T10:12:31.731Z,95.1
2015-11-17T10:13:31.656Z,95.3
2015-11-17T10:14:31.627Z,96
2015-11-17T10:15:31.567Z,95.9
2015-11-17T10:16:31.492Z,96.3
2015-11-17T10:17:31.448Z,96.5
2015-11-17T10:18:31.420Z,96.3
2015-11-17T10:19:31.406Z,96.8
2015-11-17T10:20:31.284Z,96.8
2015-11-17T10:21:31.240Z,96.9
2015-11-17T10:22:31.180Z,96.7
2015-11-17T10:23:31.136Z,96.9
2015-11-17T10:24:31.326Z,96.7
2015-11-17T10:25:31.033Z,96.4
2015-11-17T10:26:30.973Z,96.7
2015-11-17T10:27:30.929Z,96.4
2015-11-17T10:28:30.884Z,96.4
2015-11-17T10:29:30.824Z,96.3
2015-11-17T10:30:30.777Z,96.6
2015-11-17T10:31:30.952Z,95.6
2015-11-17T10:32:30.674Z,95.5
2015-11-17T10:33:30.614Z,95.3
2015-11-17T10:34:30.569Z,95.1
2015-11-17T10:35:30.511Z,94.7
2015-11-17T10:36:30.467Z,95.2
2015-11-17T10:37:30.649Z,95.3
2015-11-17T10:38:30.370Z,95
2015-11-17T10:39:30.311Z,95.7
2015-11-17T10:40:30.282Z,96.5
2015-11-17T10:41:30.207Z,97.3
2015-11-17T10:42:30.179Z,98.4
2015-11-17T10:43:30.103Z,98.7
2015-11-17T10:44:30.043Z,99
2015-11-17T10:45:30.000Z,99.1
2015-11-17T10:46:29.940Z,99.7
2015-11-17T10:47:29.895Z,99.7
2015-11-17T10:48:29.867Z,99.8
2015-11-17T10:49:29.792Z,98.7
2015-11-17T10:50:29.732Z,99.3
2015-11-17T10:51:29.688Z,99.5
2015-11-17T10:52:29.676Z,99.3
2015-11-17T10:53:29.662Z,99.3
2015-11-17T10:54:29.525Z,99.3
2015-11-17T10:55:29.465Z,99.2
2015-11-17T10:56:29.436Z,99.2
2015-11-17T10:57:29.377Z,99.6
2015-11-17T10:58:29.317Z,99.3
2015-11-17T10:59:29.272Z,99.2
2015-11-17T11:00:29.213Z,98.7
2015-11-17T11:01:29.169Z,98.7
2015-11-17T11:02:29.109Z,98.6
2015-11-17T11:03:29.080Z,98.6
2015-11-17T11:04:28.271Z,98.4
2015-11-17T11:05:28.976Z,98.5
2015-11-17T11:06:28.917Z,98.6
2015-11-17T11:07:28.904Z,98.8
2015-11-17T11:08:28.811Z,98.8
2015-11-17T11:09:28.751Z,98.7
2015-11-17T11:10:28.707Z,98.7
2015-11-17T11:11:28.662Z,98.6
2015-11-17T11:12:28.602Z,98.8
2015-11-17T11:13:28.575Z,98.9
2015-11-17T11:14:28.514Z,98.8
2015-11-17T11:15:28.455Z,98.5
2015-11-17T11:16:28.411Z,97.5
2015-11-17T11:17:28.366Z,97.4
2015-11-17T11:18:28.448Z,97.2
2015-11-17T11:19:28.262Z,96.5
2015-11-17T11:20:28.265Z,96.7
2015-11-17T11:21:28.143Z,96.9
2015-11-17T11:22:28.114Z,96.5
2015-11-17T11:23:28.055Z,95.7
2015-11-17T11:24:28.011Z,95.8
2015-11-17T11:25:27.950Z,95.8
2015-11-17T11:26:27.906Z,96.1
2015-11-17T11:27:28.081Z,95.7
2015-11-17T11:28:27.803Z,95
2015-11-17T11:29:27.743Z,94.7
2015-11-17T11:30:27.699Z,95
2015-11-17T11:31:27.874Z,93.9
2015-11-17T11:32:27.580Z,94
2015-11-17T11:33:27.535Z,93.5
2015-11-17T11:34:27.491Z,93.8
2015-11-17T11:35:27.448Z,93.7
2015-11-17T11:36:27.388Z,94
2015-11-17T11:37:27.343Z,93.7
2015-11-17T11:38:27.283Z,93.3
2015-11-17T11:39:27.286Z,93.3
2015-11-17T11:40:27.180Z,93.6
2015-11-17T11:41:27.120Z,93.3
2015-11-17T11:42:27.075Z,93.4
2015-11-17T11:43:27.016Z,93.4
2015-11-17T11:44:26.988Z,92.6
2015-11-17T11:45:26.927Z,92.4
2015-11-17T11:46:26.868Z,90.5
2015-11-17T11:47:26.805Z,91.2
2015-11-17T11:48:26.746Z,91.8
2015-11-17T11:49:26.716Z,91.7
2015-11-17T11:50:26.891Z,92.3
2015-11-17T11:51:26.597Z,92.6
2015-11-17T11:52:25.804Z,92.5
2015-11-17T11:53:26.510Z,92.9
2015-11-17T11:54:26.435Z,92.9
2015-11-17T11:55:26.391Z,92.8
2015-11-17T11:56:26.346Z,91.6
2015-11-17T11:57:26.302Z,90.7
2015-11-17T11:58:26.230Z,90.6
2015-11-17T11:59:26.187Z,91.3
2015-11-17T12:00:26.126Z,91.1
2015-11-17T12:01:26.332Z,91.4
2015-11-17T12:02:26.023Z,91.9
2015-11-17T12:03:25.978Z,92.6
2015-11-17T12:04:25.934Z,92.8
2015-11-17T12:05:25.890Z,93.2
2015-11-17T12:06:25.862Z,92.7
2015-11-17T12:07:25.770Z,93.1
2015-11-17T12:08:25.727Z,91.8
2015-11-17T12:09:25.667Z,89.8
2015-11-17T12:10:25.623Z,89
2015-11-17T12:11:25.578Z,89.1
2015-11-17T12:12:25.534Z,89
2015-11-17T12:13:25.475Z,88.9
2015-11-17T12:14:25.665Z,89.4
2015-11-17T12:15:25.370Z,88.7
2015-11-17T12:16:25.311Z,86.9
2015-11-17T12:17:25.267Z,87.9
2015-11-17T12:18:25.223Z,86.5
2015-11-17T12:19:25.164Z,86.2
2015-11-17T12:20:25.104Z,87.1
2015-11-17T12:21:25.059Z,87.3
2015-11-17T12:22:25.015Z,87.1
2015-11-17T12:23:24.956Z,86.6
2015-11-17T12:24:24.912Z,85.8
2015-11-17T12:25:24.852Z,86.5
2015-11-17T12:26:24.792Z,86.7
2015-11-17T12:27:24.748Z,86.3
2015-11-17T12:28:24.701Z,86.6
2015-11-17T12:29:24.642Z,86.1
2015-11-17T12:30:24.597Z,86
2015-11-17T12:31:24.568Z,85.6
2015-11-17T12:32:24.493Z,86.2
2015-11-17T12:33:24.450Z,85.2
2015-11-17T12:34:24.389Z,85.1
2015-11-17T12:35:24.345Z,84.6
2015-11-17T12:36:24.286Z,84.6
2015-11-17T12:37:24.241Z,85.1
2015-11-17T12:38:24.181Z,86.3
2015-11-17T12:39:24.138Z,83.9
2015-11-17T12:40:24.077Z,84.6
2015-11-17T12:41:24.033Z,85
2015-11-17T12:42:23.974Z,85.3
2015-11-17T12:43:23.930Z,85.6
2015-11-17T12:44:23.886Z,85.7
2015-11-17T12:45:23.983Z,84.2
2015-11-17T12:46:23.922Z,84.7
2015-11-17T12:47:23.722Z,85.1
2015-11-17T12:48:23.662Z,85.3
2015-11-17T12:49:23.619Z,85.6
2015-11-17T12:50:23.558Z,85.6
2015-11-17T12:51:23.514Z,85.3
2015-11-17T12:52:23.470Z,82.9
2015-11-17T12:53:23.411Z,82.9
2015-11-17T12:54:23.647Z,83.8
2015-11-17T12:55:23.651Z,84.8
2015-11-17T12:56:23.528Z,84.9
2015-11-17T12:57:23.203Z,85.1
2015-11-17T12:58:23.158Z,84.9
2015-11-17T12:59:23.095Z,85
2015-11-17T13:00:23.035Z,85.4
2015-11-17T13:01:22.960Z,85.6
2015-11-17T13:02:22.916Z,85.6
2015-11-17T13:03:22.857Z,85.3
2015-11-17T13:04:22.770Z,85.7
2015-11-17T13:05:22.720Z,85.4
2015-11-17T13:06:22.671Z,85.4
2015-11-17T13:07:22.609Z,86.2
2015-11-17T13:08:22.559Z,86.3
2015-11-17T13:09:22.494Z,86.5
2015-11-17T13:10:22.429Z,86.4
2015-11-17T13:11:22.384Z,86.3
2015-11-17T13:12:22.323Z,86.2
2015-11-17T13:13:22.276Z,85.9
2015-11-17T13:14:22.449Z,85.9
2015-11-17T13:15:22.184Z,85.7
2015-11-17T13:16:22.125Z,85.5
2015-11-17T13:17:22.080Z,85.2
2015-11-17T13:18:22.019Z,85.6
2015-11-17T13:19:21.958Z,86.1
2015-11-17T13:20:21.914Z,86.1